Time;durP1;ratioP1;P1;durP2;ratioP2;P2;SDS_P1;SDS_P2;PMS_P1;PMS_P2;Temp;Humidity;BMP_temperature;BMP_pressure;BME280_temperature;BME280_humidity;BME280_pressure;Samples;Min_cycle;Max_cycle;Signal;HPM_P1;HPM_P2
2022/09/06 00:00:33;;;;;;;2.15;1.83;;;;;;;27.36;52.47;99130.53;2080985;28;20135;-52
2022/09/06 00:01:34;;;;;;;2.33;1.95;;;;;;;27.34;52.33;99117.13;2084952;28;20057;-53
2022/09/06 00:02:36;;;;;;;4.25;2.50;;;;;;;27.34;52.35;99125.31;2088054;28;20094;-53
2022/09/06 00:03:37;;;;;;;3.25;1.88;;;;;;;27.35;52.66;99124.22;2087218;28;20067;-55
2022/09/06 00:04:39;;;;;;;6.55;2.28;;;;;;;27.33;52.71;99123.66;2081625;28;20838;-54
2022/09/06 00:05:42;;;;;;;3.08;2.15;;;;;;;27.34;52.62;99117.13;2092773;28;20056;-54
2022/09/06 00:06:44;;;;;;;2.20;1.83;;;;;;;27.33;52.52;99118.22;2093814;28;20499;-56
2022/09/06 00:07:45;;;;;;;4.63;2.45;;;;;;;27.33;52.65;99115.50;2083572;28;20049;-55
2022/09/06 00:08:48;;;;;;;1.85;1.70;;;;;;;27.34;52.49;99116.31;2082187;28;20048;-54
2022/09/06 00:09:49;;;;;;;2.42;1.50;;;;;;;27.35;52.51;99117.97;2084509;28;20056;-55
2022/09/06 00:10:57;;;;;;;5.05;2.10;;;;;;;27.32;52.80;99105.66;2083393;28;20119;-55
2022/09/06 00:11:58;;;;;;;3.53;1.80;;;;;;;27.30;52.71;99106.97;2082002;28;20470;-54
2022/09/06 00:13:03;;;;;;;3.22;1.42;;;;;;;27.30;52.34;99109.69;2084739;28;20052;-53
2022/09/06 00:14:04;;;;;;;5.72;1.83;;;;;;;27.30;52.57;99112.44;2086492;28;20052;-56
2022/09/06 00:15:07;;;;;;;2.15;1.63;;;;;;;27.28;52.34;99112.69;2091546;28;20132;-56
2022/09/06 00:16:10;;;;;;;2.22;1.70;;;;;;;27.30;52.26;99105.09;2084098;28;20111;-55
2022/09/06 00:17:12;;;;;;;2.83;2.35;;;;;;;27.29;52.22;99106.16;2084479;28;20049;-53
2022/09/06 00:18:13;;;;;;;4.30;1.77;;;;;;;27.27;52.33;99115.66;2091563;28;20052;-54
2022/09/06 00:19:15;;;;;;;2.40;1.92;;;;;;;27.26;52.50;99109.38;2083610;28;20044;-56
2022/09/06 00:20:16;;;;;;;1.75;1.52;;;;;;;27.25;52.33;99107.75;2084754;28;20560;-55
2022/09/06 00:21:21;;;;;;;2.17;1.73;;;;;;;27.25;52.39;99107.75;2087933;28;20083;-53
2022/09/06 00:22:22;;;;;;;3.65;1.85;;;;;;;27.24;52.43;99107.97;2086035;28;20053;-51
2022/09/06 00:23:24;;;;;;;2.83;2.17;;;;;;;27.25;52.45;99109.66;2086511;28;20052;-55
2022/09/06 00:24:25;;;;;;;4.00;2.25;;;;;;;27.23;52.41;99111.78;2085942;28;20056;-55
2022/09/06 00:25:28;;;;;;;4.60;2.15;;;;;;;27.24;52.34;99114.25;2080449;28;20163;-54
2022/09/06 00:26:30;;;;;;;2.28;2.00;;;;;;;27.25;52.33;99109.66;2079126;28;20056;-56
2022/09/06 00:27:31;;;;;;;2.03;1.65;;;;;;;27.27;52.32;99107.47;2081067;28;20729;-54
2022/09/06 00:28:35;;;;;;;4.13;2.17;;;;;;;27.31;52.74;99108.66;2082688;28;20102;-57
2022/09/06 00:29:35;;;;;;;3.78;1.88;;;;;;;27.31;52.63;99111.38;2080445;28;20060;-52
2022/09/06 00:30:37;;;;;;;2.90;2.22;;;;;;;27.29;52.42;99103.44;2085357;28;20135;-56
2022/09/06 00:31:38;;;;;;;2.03;1.77;;;;;;;27.27;52.43;99105.56;2090508;28;20052;-56
2022/09/06 00:32:40;;;;;;;4.68;2.08;;;;;;;27.27;52.44;99110.19;2086056;28;20052;-55
2022/09/06 00:33:41;;;;;;;2.05;1.73;;;;;;;27.24;52.48;99108.81;2088801;28;20063;-55
2022/09/06 00:34:43;;;;;;;3.47;1.92;;;;;;;27.24;52.45;99114.25;2093605;28;20052;-55
2022/09/06 00:35:46;;;;;;;2.03;1.83;;;;;;;27.23;52.54;99112.59;2092831;28;20044;-55
2022/09/06 00:36:48;;;;;;;2.10;1.73;;;;;;;27.25;52.47;99110.47;2091928;28;20052;-55
2022/09/06 00:37:48;;;;;;;1.83;1.30;;;;;;;27.27;52.61;99108.31;2089432;28;20056;-55
2022/09/06 00:38:50;;;;;;;3.03;1.80;;;;;;;27.28;52.60;99107.25;2094455;28;20159;-55
2022/09/06 00:39:51;;;;;;;4.57;2.17;;;;;;;27.29;52.87;99105.34;2088680;28;20056;-53
2022/09/06 00:40:53;;;;;;;3.15;2.58;;;;;;;27.30;53.00;99106.97;2090989;28;20127;-52
2022/09/06 00:41:54;;;;;;;3.78;2.20;;;;;;;27.31;52.52;99105.94;2091977;28;20047;-55
2022/09/06 00:42:57;;;;;;;2.40;1.92;;;;;;;27.29;52.68;99098.00;2090519;28;20079;-56
2022/09/06 00:43:59;;;;;;;2.53;2.33;;;;;;;27.29;52.91;99106.16;2078653;28;20063;-54
2022/09/06 00:45:01;;;;;;;3.10;2.38;;;;;;;27.27;53.04;99104.75;2092193;28;20664;-58
2022/09/06 00:46:03;;;;;;;4.85;1.67;;;;;;;27.26;52.71;99103.94;2089932;28;20049;-56
2022/09/06 00:47:07;;;;;;;2.00;1.90;;;;;;;27.26;53.20;99103.13;2094222;28;20044;-55
2022/09/06 00:48:08;;;;;;;3.15;1.65;;;;;;;27.25;52.80;99093.31;2092448;28;20044;-57
2022/09/06 00:49:14;;;;;;;2.95;1.77;;;;;;;27.28;52.97;99093.63;2093907;28;20516;-53
2022/09/06 00:50:18;;;;;;;3.97;1.92;;;;;;;27.27;53.02;99094.69;2091593;28;20135;-53
2022/09/06 00:51:22;;;;;;;3.10;2.47;;;;;;;27.28;52.86;99096.34;2087989;28;20739;-54
2022/09/06 00:52:25;;;;;;;3.30;2.45;;;;;;;27.28;53.04;99100.97;2088469;28;20059;-56
2022/09/06 00:53:27;;;;;;;4.32;1.98;;;;;;;27.27;52.89;99094.69;2089769;28;20056;-54
2022/09/06 00:54:29;;;;;;;2.45;2.25;;;;;;;27.26;53.01;99095.78;2091408;28;20403;-52
2022/09/06 00:55:31;;;;;;;5.55;1.83;;;;;;;27.26;52.95;99098.50;2087395;28;20056;-52
2022/09/06 00:56:34;;;;;;;1.65;1.48;;;;;;;27.26;52.73;99090.31;2092398;28;20701;-55
2022/09/06 00:57:36;;;;;;;2.88;2.25;;;;;;;27.25;52.96;99091.41;2089780;28;20051;-55
2022/09/06 00:58:37;;;;;;;2.10;1.92;;;;;;;27.24;52.87;99089.75;2089309;28;20044;-55
2022/09/06 00:59:42;;;;;;;2.15;1.95;;;;;;;27.27;53.11;99085.69;2091895;28;20051;-54
2022/09/06 01:00:43;;;;;;;2.97;1.90;;;;;;;27.26;52.60;99087.59;2093603;28;20044;-55
2022/09/06 01:01:45;;;;;;;1.65;1.55;;;;;;;27.27;52.82;99097.41;2087940;28;20060;-55
2022/09/06 01:02:48;;;;;;;4.75;2.60;;;;;;;27.26;52.63;99093.03;2088462;28;20604;-54
2022/09/06 01:03:49;;;;;;;3.00;1.90;;;;;;;27.26;52.66;99087.59;2090390;28;20746;-56
2022/09/06 01:04:52;;;;;;;3.03;1.92;;;;;;;27.24;53.01;99095.19;2088906;28;20143;-54
2022/09/06 01:06:11;;;;;;;2.10;1.65;;;;;;;27.22;52.65;99091.06;2092437;28;20139;-54
2022/09/06 01:07:20;;;;;;;2.05;1.70;;;;;;;27.24;52.65;99088.91;2089077;28;20078;-54
2022/09/06 01:08:33;;;;;;;4.20;2.22;;;;;;;27.20;52.70;99094.06;2082377;28;20052;-56
2022/09/06 01:09:52;;;;;;;1.95;1.67;;;;;;;27.19;52.65;99086.94;2082670;28;20058;-56
2022/09/06 01:11:07;;;;;;;3.08;1.60;;;;;;;27.21;52.85;99094.88;2085332;28;20052;-57
2022/09/06 01:12:24;;;;;;;2.92;1.77;;;;;;;27.19;52.59;99086.94;2087248;28;20033;-56
2022/09/06 01:13:35;;;;;;;2.17;1.60;;;;;;;27.19;53.23;99086.94;2081197;28;20797;-52
2022/09/06 01:14:54;;;;;;;2.95;1.80;;;;;;;27.21;53.19;99095.69;2082718;28;20048;-54
2022/09/06 01:16:09;;;;;;;3.08;1.90;;;;;;;27.19;53.12;99100.53;2082943;28;20044;-56
2022/09/06 01:17:29;;;;;;;3.88;2.08;;;;;;;27.20;52.92;99095.94;2092224;28;20044;-51
2022/09/06 01:18:41;;;;;;;2.47;2.10;;;;;;;27.19;52.75;99089.66;2086443;28;20059;-53
2022/09/06 01:20:04;;;;;;;3.50;1.75;;;;;;;27.16;52.83;99087.44;2086276;28;20049;-53
2022/09/06 01:21:24;;;;;;;2.67;1.95;;;;;;;27.17;52.90;99091.81;2084100;28;20049;-54
2022/09/06 01:22:51;;;;;;;3.15;1.73;;;;;;;27.15;53.13;99088.50;2084255;28;20060;-55
2022/09/06 01:24:24;;;;;;;3.08;1.83;;;;;;;27.17;52.85;99091.81;2084784;28;20126;-54
2022/09/06 01:25:35;;;;;;;3.90;2.17;;;;;;;27.17;53.08;99094.56;2057885;28;20131;-58
2022/09/06 01:27:13;;;;;;;2.40;2.13;;;;;;;27.15;53.19;99092.03;2083570;28;20494;-55
2022/09/06 01:28:29;;;;;;;2.40;1.75;;;;;;;27.14;53.13;99090.41;2082062;28;20059;-56
2022/09/06 01:29:36;;;;;;;3.05;1.88;;;;;;;27.17;52.97;99094.56;2081191;28;20053;-57
2022/09/06 01:30:43;;;;;;;2.05;1.73;;;;;;;27.19;52.73;99092.38;2082695;28;20696;-55
2022/09/06 01:31:50;;;;;;;6.13;2.08;;;;;;;27.18;52.77;99090.75;2083459;28;20081;-56
2022/09/06 01:32:59;;;;;;;3.22;1.60;;;;;;;27.15;53.11;99100.19;2088430;28;20044;-55
2022/09/06 01:34:19;;;;;;;3.05;1.80;;;;;;;27.15;52.99;99097.47;2089657;28;20055;-58
2022/09/06 01:35:28;;;;;;;1.98;1.85;;;;;;;27.13;52.87;99094.16;2089725;28;20060;-53
2022/09/06 01:36:35;;;;;;;4.30;2.38;;;;;;;27.14;52.54;99095.03;2081797;28;20076;-54
2022/09/06 01:37:37;;;;;;;2.65;2.15;;;;;;;27.14;53.02;99095.03;2083277;28;20045;-54
2022/09/06 01:38:39;;;;;;;2.08;1.83;;;;;;;27.16;52.68;99098.31;2078294;28;20120;-55
2022/09/06 01:39:40;;;;;;;2.78;1.70;;;;;;;27.18;53.02;99096.19;2079488;28;20056;-55
2022/09/06 01:40:42;;;;;;;4.32;1.88;;;;;;;27.18;53.22;99096.19;2077499;28;20048;-54
2022/09/06 01:41:43;;;;;;;4.55;2.35;;;;;;;27.20;52.89;99102.22;2082093;28;20045;-53
2022/09/06 01:42:47;;;;;;;3.13;2.10;;;;;;;27.20;52.92;99095.94;2081723;28;20139;-52
2022/09/06 01:43:50;;;;;;;4.00;1.98;;;;;;;27.19;53.09;99095.09;2082749;28;20060;-53
2022/09/06 01:44:56;;;;;;;5.03;2.20;;;;;;;27.20;53.08;99094.06;2077800;28;20045;-55
2022/09/06 01:46:04;;;;;;;3.28;1.55;;;;;;;27.20;53.18;99094.06;2079043;28;20051;-55
2022/09/06 01:47:17;;;;;;;4.18;2.00;;;;;;;27.18;53.08;99098.91;2081264;28;20083;-52
2022/09/06 01:48:32;;;;;;;2.70;1.77;;;;;;;27.17;53.00;99094.56;2084768;28;20867;-52
2022/09/06 01:49:47;;;;;;;1.88;1.67;;;;;;;27.16;53.15;99101.91;2081356;28;20056;-52
2022/09/06 01:51:05;;;;;;;6.45;1.80;;;;;;;27.14;53.12;99101.28;2085549;28;20521;-53
2022/09/06 01:52:14;;;;;;;4.60;1.50;;;;;;;27.13;53.06;99096.06;2088488;28;20548;-56
2022/09/06 01:53:33;;;;;;;1.88;1.38;;;;;;;27.12;53.08;99094.44;2084441;28;20060;-56
2022/09/06 01:54:49;;;;;;;3.50;1.98;;;;;;;27.10;53.12;99096.56;2077486;28;20045;-56
2022/09/06 01:56:00;;;;;;;3.30;2.28;;;;;;;27.10;53.41;99091.94;2082576;28;20055;-54
2022/09/06 01:57:09;;;;;;;;;;;;;;;26.98;53.21;99095.84;2083568;28;20677;-53
2022/09/06 01:58:33;;;;;;;2.38;1.98;;;;;;;27.05;53.36;99099.22;2087538;28;19924;-55
2022/09/06 01:59:47;;;;;;;5.82;2.10;;;;;;;27.08;53.25;99106.88;2081297;28;20052;-54
2022/09/06 02:00:58;;;;;;;2.20;1.80;;;;;;;27.07;53.08;99105.25;2082726;28;20052;-54
2022/09/06 02:02:07;;;;;;;2.22;1.73;;;;;;;27.09;52.95;99098.47;2080192;28;20049;-55
2022/09/06 02:03:16;;;;;;;2.25;1.90;;;;;;;27.10;53.19;99099.28;2090988;28;20048;-56
2022/09/06 02:04:24;;;;;;;2.83;2.47;;;;;;;27.10;52.82;99104.75;2084442;28;20056;-52
2022/09/06 02:05:31;;;;;;;3.55;1.80;;;;;;;27.11;53.17;99100.97;2086298;28;20065;-56
2022/09/06 02:06:39;;;;;;;3.08;1.42;;;;;;;27.11;52.88;99106.41;2084710;28;20052;-54
2022/09/06 02:07:43;;;;;;;2.53;1.92;;;;;;;27.07;53.26;99099.78;2082659;28;20059;-51
2022/09/06 02:08:49;;;;;;;1.80;1.70;;;;;;;27.09;52.98;99097.66;2078977;28;20048;-56
2022/09/06 02:09:56;;;;;;;5.80;1.88;;;;;;;27.10;53.17;99107.47;2083122;28;20514;-54
2022/09/06 02:11:00;;;;;;;2.63;1.88;;;;;;;27.12;53.21;99110.78;2084720;28;20056;-55
2022/09/06 02:12:05;;;;;;;3.22;1.75;;;;;;;27.10;52.82;99105.56;2084326;28;20502;-54
2022/09/06 02:13:09;;;;;;;2.78;1.58;;;;;;;27.10;53.05;99107.47;2091580;28;20127;-53
2022/09/06 02:14:16;;;;;;;3.00;1.80;;;;;;;27.09;52.97;99109.38;2083633;28;20159;-53
2022/09/06 02:15:23;;;;;;;2.35;1.80;;;;;;;27.08;52.82;99110.44;2086036;28;20045;-53
2022/09/06 02:16:27;;;;;;;2.33;1.55;;;;;;;27.09;53.11;99111.28;2085692;28;20076;-55
2022/09/06 02:17:32;;;;;;;2.50;1.80;;;;;;;27.11;53.01;99103.69;2085121;28;20052;-54
2022/09/06 02:18:38;;;;;;;3.22;2.00;;;;;;;27.11;52.94;99107.22;2084571;28;20055;-55
2022/09/06 02:19:45;;;;;;;2.25;1.90;;;;;;;27.12;52.88;99103.41;2083569;28;20033;-55
2022/09/06 02:20:51;;;;;;;2.60;2.20;;;;;;;27.11;53.00;99101.78;2084522;28;20079;-51
2022/09/06 02:21:53;;;;;;;3.17;1.38;;;;;;;27.09;53.12;99103.91;2084630;28;20053;-55
2022/09/06 02:22:57;;;;;;;5.80;1.88;;;;;;;27.10;53.05;99091.94;2086523;28;20048;-55
2022/09/06 02:24:04;;;;;;;2.88;2.00;;;;;;;27.09;52.88;99094.94;2085420;28;20136;-56
2022/09/06 02:25:09;;;;;;;2.50;1.77;;;;;;;27.08;52.83;99096.00;2088052;28;20870;-53
2022/09/06 02:26:16;;;;;;;1.75;1.65;;;;;;;27.08;52.99;99093.28;2088758;28;20076;-56
2022/09/06 02:27:18;;;;;;;3.72;1.75;;;;;;;27.07;53.00;99092.44;2089239;28;20052;-55
2022/09/06 02:28:20;;;;;;;1.70;1.60;;;;;;;27.09;53.16;99097.66;2089846;28;21724;-52
2022/09/06 02:29:23;;;;;;;2.53;1.90;;;;;;;27.08;52.90;99091.41;2083765;28;20052;-54
2022/09/06 02:30:25;;;;;;;1.98;1.73;;;;;;;27.11;53.11;99095.53;2080429;28;20171;-52
2022/09/06 02:31:33;;;;;;;3.42;2.50;;;;;;;27.11;52.73;99099.06;2082156;28;20063;-56
2022/09/06 02:32:44;;;;;;;4.60;1.88;;;;;;;27.09;53.23;99092.22;2082842;28;20499;-54
2022/09/06 02:33:47;;;;;;;3.72;2.03;;;;;;;27.09;52.87;99094.94;2081267;28;20052;-52
2022/09/06 02:34:49;;;;;;;3.17;2.20;;;;;;;27.13;53.17;99093.34;2079931;28;20063;-54
2022/09/06 02:35:53;;;;;;;2.47;2.22;;;;;;;27.10;52.52;99093.84;2084853;28;20040;-55
2022/09/06 02:36:55;;;;;;;3.03;2.05;;;;;;;27.06;53.01;99092.72;2085461;28;20056;-54
2022/09/06 02:37:57;;;;;;;3.58;2.08;;;;;;;27.07;52.95;99100.63;2082811;28;20044;-56
2022/09/06 02:38:59;;;;;;;4.30;2.67;;;;;;;27.06;52.99;99090.81;2082277;28;20049;-54
2022/09/06 02:40:00;;;;;;;1.95;1.65;;;;;;;27.05;52.79;99091.91;2083688;28;20049;-52
2022/09/06 02:41:02;;;;;;;2.03;1.23;;;;;;;27.05;53.05;99091.03;2088117;28;20044;-55
2022/09/06 02:42:06;;;;;;;2.70;1.80;;;;;;;27.08;52.76;99091.41;2082481;28;20056;-55
2022/09/06 02:43:07;;;;;;;5.03;1.90;;;;;;;27.08;52.91;99096.00;2082233;28;20044;-56
2022/09/06 02:44:09;;;;;;;2.45;1.70;;;;;;;27.09;52.81;99092.22;2079780;28;20139;-56
2022/09/06 02:45:10;;;;;;;3.25;2.60;;;;;;;27.09;52.75;99092.22;2083575;28;20052;-54
2022/09/06 02:46:13;;;;;;;3.75;1.75;;;;;;;27.10;52.76;99088.41;2082298;28;20055;-56
2022/09/06 02:47:15;;;;;;;1.90;1.40;;;;;;;27.09;52.47;99089.50;2083011;28;20040;-51
2022/09/06 02:48:17;;;;;;;1.40;1.30;;;;;;;27.08;52.95;99093.28;2089635;28;20055;-52
2022/09/06 02:49:18;;;;;;;3.03;1.60;;;;;;;27.07;53.08;99092.44;2091960;28;20048;-53
2022/09/06 02:50:20;;;;;;;4.70;1.70;;;;;;;27.09;52.90;99092.22;2090485;28;20139;-50
2022/09/06 02:51:21;;;;;;;2.63;1.58;;;;;;;27.08;52.77;99090.53;2088976;28;20053;-56
2022/09/06 02:52:22;;;;;;;2.08;1.50;;;;;;;27.06;52.76;99087.28;2089648;28;20155;-54
2022/09/06 02:53:23;;;;;;;3.67;2.22;;;;;;;27.05;52.69;99091.03;2089897;28;20618;-55
2022/09/06 02:54:25;;;;;;;1.77;1.67;;;;;;;27.06;52.91;99090.00;2091717;28;20298;-53
2022/09/06 02:55:26;;;;;;;2.10;1.30;;;;;;;27.07;52.75;99087.00;2086985;28;20059;-55
2022/09/06 02:56:28;;;;;;;2.15;1.48;;;;;;;27.07;52.66;99094.34;2087364;28;20139;-56
2022/09/06 02:57:29;;;;;;;2.67;1.98;;;;;;;27.05;52.88;99091.91;2090220;28;20055;-55
2022/09/06 02:58:30;;;;;;;2.65;1.75;;;;;;;27.08;53.07;99087.81;2090227;28;20183;-54
2022/09/06 02:59:31;;;;;;;2.05;1.63;;;;;;;27.07;53.02;99089.72;2089300;28;20044;-54
2022/09/06 03:00:34;;;;;;;3.03;1.90;;;;;;;27.03;52.80;99094.03;2089423;28;20142;-56
2022/09/06 03:01:36;;;;;;;1.23;1.20;;;;;;;27.05;52.86;99082.88;2091921;28;20048;-54
2022/09/06 03:02:38;;;;;;;4.43;1.60;;;;;;;27.07;52.67;99078.00;2086161;28;20051;-54
2022/09/06 03:03:39;;;;;;;1.67;1.38;;;;;;;27.08;52.96;99079.66;2091548;28;20048;-52
2022/09/06 03:04:40;;;;;;;6.47;2.05;;;;;;;27.07;52.87;99075.28;2092431;28;20164;-53
2022/09/06 03:05:45;;;;;;;2.13;1.67;;;;;;;27.06;52.93;99087.28;2092506;28;20048;-52
2022/09/06 03:06:47;;;;;;;2.17;1.60;;;;;;;27.05;52.71;99080.16;2096094;28;20051;-55
2022/09/06 03:07:48;;;;;;;2.45;1.95;;;;;;;27.03;52.99;99082.31;2090914;28;20059;-55
2022/09/06 03:08:50;;;;;;;1.65;1.55;;;;;;;27.08;52.71;99087.81;2085819;28;20040;-55
2022/09/06 03:09:51;;;;;;;2.80;1.80;;;;;;;27.07;52.74;99087.00;2090894;28;20571;-55
2022/09/06 03:10:55;;;;;;;2.45;2.25;;;;;;;27.07;52.51;99094.34;2085471;28;20135;-53
2022/09/06 03:11:56;;;;;;;2.92;1.50;;;;;;;27.06;53.07;99084.53;2086763;28;20048;-55
2022/09/06 03:12:58;;;;;;;4.72;1.70;;;;;;;27.06;52.81;99082.63;2090477;28;20048;-55
2022/09/06 03:13:59;;;;;;;2.55;1.40;;;;;;;27.07;52.98;99089.72;2091033;28;20052;-54
2022/09/06 03:15:01;;;;;;;2.75;1.75;;;;;;;27.07;52.75;99080.75;2092976;28;20761;-58
2022/09/06 03:16:02;;;;;;;3.17;1.50;;;;;;;27.07;52.83;99091.63;2080885;28;20044;-53
2022/09/06 03:17:05;;;;;;;3.08;1.58;;;;;;;27.06;53.05;99081.81;2086658;28;20727;-55
2022/09/06 03:18:06;;;;;;;2.03;1.30;;;;;;;27.06;52.71;99084.53;2075520;28;20064;-55
2022/09/06 03:19:08;;;;;;;2.20;1.48;;;;;;;27.07;52.70;99083.47;2071764;28;20071;-55
2022/09/06 03:20:10;;;;;;;1.60;1.50;;;;;;;27.06;52.75;99087.28;2077597;28;20052;-57
2022/09/06 03:21:13;;;;;;;5.28;1.60;;;;;;;27.02;52.87;99086.09;2079634;28;20843;-55
2022/09/06 03:22:14;;;;;;;1.73;1.63;;;;;;;27.04;53.10;99083.97;2079200;28;20056;-53
2022/09/06 03:23:16;;;;;;;3.70;1.92;;;;;;;27.05;52.70;99082.88;2083351;28;20127;-52
2022/09/06 03:24:17;;;;;;;2.83;2.00;;;;;;;27.08;52.89;99085.09;2084605;28;20059;-53
2022/09/06 03:25:19;;;;;;;2.83;1.58;;;;;;;27.07;52.62;99088.91;2088227;28;20797;-55
2022/09/06 03:26:20;;;;;;;3.25;1.90;;;;;;;27.07;52.47;99081.56;2083116;28;20045;-53
2022/09/06 03:27:21;;;;;;;2.83;1.60;;;;;;;27.08;52.54;99080.50;2085212;28;20672;-50
2022/09/06 03:28:24;;;;;;;1.40;1.30;;;;;;;27.07;52.65;99078.00;2079167;28;20053;-56
2022/09/06 03:29:24;;;;;;;3.00;1.67;;;;;;;27.06;52.78;99076.38;2085780;28;20499;-55
2022/09/06 03:30:26;;;;;;;3.90;1.30;;;;;;;27.07;52.97;99080.75;2081759;28;20049;-55
2022/09/06 03:31:27;;;;;;;3.20;1.80;;;;;;;27.07;52.97;99078.84;2087317;28;20667;-54
2022/09/06 03:32:30;;;;;;;1.95;1.67;;;;;;;27.06;52.60;99076.38;2088458;28;20055;-56
2022/09/06 03:33:31;;;;;;;3.30;1.77;;;;;;;27.07;52.88;99072.56;2087785;28;20587;-54
2022/09/06 03:34:33;;;;;;;7.20;1.85;;;;;;;27.07;52.66;99069.84;2087383;28;20052;-54
2022/09/06 03:35:34;;;;;;;3.83;1.52;;;;;;;27.06;52.67;99079.09;2087697;28;20746;-54
2022/09/06 03:36:36;;;;;;;5.97;1.55;;;;;;;27.02;52.62;99076.03;2088894;28;20054;-54
2022/09/06 03:37:37;;;;;;;2.88;1.23;;;;;;;27.04;53.00;99076.63;2088684;28;20048;-56
2022/09/06 03:38:40;;;;;;;2.38;1.63;;;;;;;27.07;52.77;99072.56;2087523;28;20171;-56
2022/09/06 03:39:41;;;;;;;2.00;1.60;;;;;;;27.06;52.91;99079.91;2089028;28;20040;-52
2022/09/06 03:40:44;;;;;;;3.22;1.83;;;;;;;27.08;52.60;99079.66;2088928;28;20049;-54
2022/09/06 03:41:45;;;;;;;1.65;1.45;;;;;;;27.07;52.42;99078.00;2088935;28;20431;-55
2022/09/06 03:42:47;;;;;;;5.50;2.35;;;;;;;27.06;52.53;99081.81;2091991;28;20123;-52
2022/09/06 03:43:48;;;;;;;5.78;1.58;;;;;;;27.06;52.96;99090.00;2094278;28;20056;-55
2022/09/06 03:44:50;;;;;;;2.47;1.60;;;;;;;27.02;53.03;99086.09;2091148;28;20723;-56
2022/09/06 03:45:52;;;;;;;1.55;1.42;;;;;;;27.05;52.63;99081.00;2094288;28;20044;-55
2022/09/06 03:46:54;;;;;;;1.85;1.42;;;;;;;27.06;52.82;99084.53;2090483;28;20494;-52
2022/09/06 03:47:56;;;;;;;3.78;1.73;;;;;;;27.06;52.88;99077.19;2090706;28;20052;-54
2022/09/06 03:48:59;;;;;;;3.95;2.05;;;;;;;27.06;52.58;99085.38;2092004;28;20047;-55
2022/09/06 03:49:59;;;;;;;1.85;1.52;;;;;;;27.05;52.52;99080.16;2090598;28;21468;-52
2022/09/06 03:51:01;;;;;;;2.40;1.50;;;;;;;27.06;52.59;99090.81;2080548;28;20044;-56
2022/09/06 03:52:02;;;;;;;3.45;1.92;;;;;;;27.05;52.90;99088.31;2090914;28;20052;-54
2022/09/06 03:53:04;;;;;;;2.08;1.40;;;;;;;27.01;52.86;99093.44;2090275;28;20044;-55
2022/09/06 03:54:05;;;;;;;1.15;1.13;;;;;;;27.00;52.77;99083.63;2090965;28;20059;-55
2022/09/06 03:55:08;;;;;;;2.20;1.33;;;;;;;27.03;52.50;99082.31;2094998;28;20044;-56
2022/09/06 03:56:09;;;;;;;1.80;1.38;;;;;;;27.03;52.83;99088.59;2092824;28;20049;-55
2022/09/06 03:57:11;;;;;;;4.70;2.15;;;;;;;27.05;52.37;99091.03;2091598;28;20143;-55
2022/09/06 03:58:12;;;;;;;3.90;1.90;;;;;;;27.03;52.40;99080.41;2091229;28;20559;-54
2022/09/06 03:59:14;;;;;;;1.40;1.20;;;;;;;27.02;52.62;99081.47;2091461;28;20796;-55
2022/09/06 04:00:15;;;;;;;3.38;2.22;;;;;;;27.02;52.96;99081.47;2090220;28;21387;-54
2022/09/06 04:01:17;;;;;;;4.00;1.98;;;;;;;27.02;52.75;99086.09;2091022;28;20087;-54
2022/09/06 04:02:18;;;;;;;2.78;1.63;;;;;;;27.01;52.55;99082.56;2091704;28;20063;-55
2022/09/06 04:03:21;;;;;;;1.50;1.40;;;;;;;27.03;52.57;99082.31;2092032;28;20539;-54
2022/09/06 04:04:23;;;;;;;1.83;1.48;;;;;;;27.02;52.84;99081.47;2087963;28;20595;-56
2022/09/06 04:05:24;;;;;;;3.08;1.50;;;;;;;27.06;52.68;99082.63;2090688;28;20053;-54
2022/09/06 04:06:26;;;;;;;4.80;1.50;;;;;;;27.04;52.47;99081.25;2090517;28;20143;-56
2022/09/06 04:07:27;;;;;;;6.43;2.13;;;;;;;27.02;52.81;99088.81;2092489;28;20117;-55
2022/09/06 04:08:29;;;;;;;2.70;1.30;;;;;;;27.02;52.86;99091.53;2084996;28;20943;-55
2022/09/06 04:09:30;;;;;;;3.60;1.75;;;;;;;27.03;52.60;99080.41;2093232;28;20514;-55
2022/09/06 04:10:32;;;;;;;1.98;1.60;;;;;;;27.04;52.33;99084.78;2090988;28;20068;-55
2022/09/06 04:11:33;;;;;;;1.90;1.80;;;;;;;27.03;52.87;99083.13;2091711;28;20048;-55
2022/09/06 04:12:35;;;;;;;3.38;1.85;;;;;;;27.02;52.63;99081.47;2088098;28;20058;-53
2022/09/06 04:13:36;;;;;;;3.55;1.67;;;;;;;27.00;52.88;99078.19;2091887;28;20048;-56
2022/09/06 04:14:38;;;;;;;2.30;1.50;;;;;;;26.94;52.93;99085.47;2094721;28;20063;-56
2022/09/06 04:15:39;;;;;;;1.30;1.20;;;;;;;26.95;52.66;99075.38;2090924;28;20055;-51
2022/09/06 04:16:41;;;;;;;1.88;1.63;;;;;;;26.99;52.88;99079.25;2087121;28;20062;-57
2022/09/06 04:17:44;;;;;;;2.03;1.63;;;;;;;27.00;52.68;99080.09;2091824;28;20556;-54
2022/09/06 04:18:47;;;;;;;2.05;1.45;;;;;;;27.00;52.56;99075.47;2089847;28;20117;-53
2022/09/06 04:19:48;;;;;;;1.45;1.35;;;;;;;27.00;52.78;99075.47;2088104;28;20091;-56
2022/09/06 04:20:52;;;;;;;2.97;1.83;;;;;;;27.03;52.38;99082.31;2091663;28;20075;-54
2022/09/06 04:21:53;;;;;;;1.58;1.20;;;;;;;27.02;52.53;99076.03;2088317;28;20056;-54
2022/09/06 04:22:54;;;;;;;2.75;1.40;;;;;;;27.02;52.50;99083.38;2092814;28;20052;-56
2022/09/06 04:23:56;;;;;;;1.70;1.40;;;;;;;27.02;52.35;99073.31;2091419;28;20142;-52
2022/09/06 04:24:57;;;;;;;3.17;1.35;;;;;;;27.02;52.79;99083.38;2093068;28;20052;-53
2022/09/06 04:25:59;;;;;;;1.77;1.60;;;;;;;27.00;52.63;99075.47;2092166;28;20127;-54
2022/09/06 04:27:00;;;;;;;1.95;1.55;;;;;;;27.01;52.57;99084.47;2090898;28;20059;-52
2022/09/06 04:28:03;;;;;;;1.40;1.20;;;;;;;27.00;52.71;99078.19;2084089;28;20061;-56
2022/09/06 04:29:04;;;;;;;1.77;1.67;;;;;;;27.02;52.32;99084.19;2071865;28;20052;-54
2022/09/06 04:30:07;;;;;;;3.20;1.50;;;;;;;27.02;52.32;99077.94;2081288;28;20113;-56
2022/09/06 04:31:08;;;;;;;1.70;1.60;;;;;;;26.99;52.79;99086.59;2083996;28;20067;-56
2022/09/06 04:32:10;;;;;;;2.17;1.98;;;;;;;27.00;52.74;99080.09;2082750;28;20048;-56
2022/09/06 04:33:11;;;;;;;3.25;1.80;;;;;;;27.00;52.42;99082.81;2079682;28;20044;-54
2022/09/06 04:34:15;;;;;;;2.08;1.80;;;;;;;27.01;52.66;99085.28;2084056;28;20159;-51
2022/09/06 04:35:16;;;;;;;1.65;1.10;;;;;;;26.99;52.67;99079.25;2078650;28;20130;-53
2022/09/06 04:36:18;;;;;;;3.90;2.45;;;;;;;26.97;52.42;99089.59;2081149;28;20084;-54
2022/09/06 04:37:19;;;;;;;1.55;1.40;;;;;;;26.96;52.77;99077.84;2081123;28;20060;-54
2022/09/06 04:38:20;;;;;;;3.35;1.73;;;;;;;26.98;52.39;99076.78;2076890;28;20551;-56
2022/09/06 04:39:21;;;;;;;2.30;1.75;;;;;;;27.00;52.51;99082.81;2079987;28;20053;-56
2022/09/06 04:40:23;;;;;;;2.13;1.50;;;;;;;26.97;52.46;99075.97;2081078;28;20143;-53
2022/09/06 04:41:24;;;;;;;1.48;1.38;;;;;;;27.01;52.38;99081.75;2083453;28;20053;-55
2022/09/06 04:42:26;;;;;;;2.83;1.95;;;;;;;27.00;52.34;99088.28;2084296;28;20144;-55
2022/09/06 04:43:27;;;;;;;2.08;1.38;;;;;;;27.00;52.53;99082.81;2082830;28;20859;-52
2022/09/06 04:44:29;;;;;;;2.10;1.80;;;;;;;26.99;52.81;99089.31;2083318;28;20044;-54
2022/09/06 04:45:30;;;;;;;1.83;1.35;;;;;;;26.99;52.57;99092.03;2085862;28;20171;-54
2022/09/06 04:46:31;;;;;;;2.63;1.30;;;;;;;27.01;52.63;99089.91;2085867;28;20123;-55
2022/09/06 04:47:32;;;;;;;1.48;1.17;;;;;;;26.99;52.64;99092.84;2087182;28;20060;-55
2022/09/06 04:48:34;;;;;;;2.72;1.55;;;;;;;27.00;52.57;99097.25;2077738;28;20139;-56
2022/09/06 04:49:37;;;;;;;4.95;1.70;;;;;;;27.00;52.58;99093.72;2084408;28;20801;-54
2022/09/06 04:50:39;;;;;;;1.60;1.50;;;;;;;26.98;52.68;99095.84;2083513;28;20049;-51
2022/09/06 04:51:40;;;;;;;2.55;1.42;;;;;;;26.95;52.79;99095.25;2083701;28;20040;-51
2022/09/06 04:52:41;;;;;;;4.00;1.60;;;;;;;26.99;52.72;99097.47;2081975;28;20883;-54
2022/09/06 04:53:42;;;;;;;3.63;1.63;;;;;;;26.97;52.59;99092.31;2080989;28;20049;-55
2022/09/06 04:54:44;;;;;;;1.50;1.40;;;;;;;26.96;52.74;99090.63;2082645;28;20661;-55
2022/09/06 04:55:45;;;;;;;2.10;1.98;;;;;;;26.96;52.33;99102.34;2082966;28;20048;-55
2022/09/06 04:56:47;;;;;;;1.50;1.35;;;;;;;26.96;52.60;99090.63;2086853;28;20205;-56
2022/09/06 04:57:48;;;;;;;1.80;1.48;;;;;;;26.96;52.69;99091.47;2085447;28;20052;-55
2022/09/06 04:58:51;;;;;;;1.63;1.50;;;;;;;26.96;52.29;99096.09;2082141;28;20127;-56
2022/09/06 04:59:52;;;;;;;1.50;1.40;;;;;;;26.99;52.21;99094.75;2079003;28;20056;-56
2022/09/06 05:00:53;;;;;;;2.92;1.25;;;;;;;26.93;52.32;99089.22;2083122;28;20063;-51
2022/09/06 05:01:54;;;;;;;1.17;1.15;;;;;;;26.95;52.38;99091.72;2080968;28;20063;-53